Sumar, Netherlands
Current Conditions -  °F | °C
As of 2:40 AM on Thursday 27 Nov 2014 (Local Time) from EHLW Reporting Station
Haze Haze  
Wind Chill: 32°   Ceiling: 1000
Heat Index: 39°   Visibility: 2.3mi
Dew Point: 37°   Wind: 13mph
Humidity: 93%   Direction: 130°SE
Pressure: 29.83"   Gusts: NA
Location:  53.18°N, 6°E
Report Text: EHLW 270140Z AUTO 13011KT 3800 BR FEW006 OVC010 04/03 Q1010 GRN
Loading
Personal Weather Stations






























Interactive Weather Map New forecast layout! Learn more

10-Day Weather Forecast

Advertisements
Track Severe Weather on mobile